Portsmouth, New Hampshire
Current Conditions -  °F | °C
As of 9:13 AM on Sunday 21 Dec 2014 (Local Time) from KPSM Reporting Station
Light Snow Light Snow  
Wind Chill: 17°   Ceiling: 2200
Heat Index: 27°   Visibility: 3mi
Dew Point: 19°   Wind: 9mph
Humidity: 74%   Direction: 330°NNW
Pressure: 30.35"   Gusts: NA
Location:  43.07°N, 70.77°W
Report Text: KPSM 211413Z 33008KT 3SM -SN SCT010 BKN022 OVC035 M03/M07 A3035 RMK AO2A
Loading
Personal Weather Stations






























Interactive Weather Map New forecast layout! Learn more

10-Day Weather Forecast

Advertisements
Track Severe Weather on mobile